METAR Data
IDs: Format: Raw Decoded Include TAF

Data at: 0910 UTC 18 Jan 2019

PAOR 180853Z 00000KT 7SM -SN BKN021 OVC025 M14/M16 A2977 RMK AO2 SNB07 SLP140 T11441161 411441178 58006
PAOR 180753Z 00000KT 9SM OVC022 M14/M16 A2978 RMK AO2 SLP143 T11441161
PAOR 180740Z 00000KT 9SM OVC022 M14/M16 A2978 RMK AO2 T11441161
PAOR 180653Z 00000KT 9SM OVC014 M14/M16 A2978 RMK AO2 SLP146 T11441161
PAOR 180553Z 00000KT 9SM FEW005 OVC012 M15/M17 A2979 RMK AO2 SNE27 SLP147 4/008 T11501167 11150 21161 55002
PAOR 180453Z 00000KT 7SM -SN FEW005 OVC012 M15/M16 A2978 RMK AO2 SLP145 PCPN VRY LGT T11501161
PAOR 180438Z 00000KT 7SM -SN FEW005 OVC012 M15/M17 A2978 RMK AO2 T11501167
PAOR 180353Z 00000KT 2SM -SN BR FEW005 OVC010 M15/M17 A2979 RMK AO2 SLP149 PCPN VRY LGT T11501167
PAOR 180253Z 00000KT 2SM -SN BR FEW004 OVC010 M16/M17 A2979 RMK AO2 SLP151 T11561167 57005
PAOR 180240Z 00000KT 2SM -SN BR FEW004 OVC010 M16/M17 A2979 RMK AO2 T11561167
PAOR 180153Z 00000KT 3/4SM -SN BR VV009 M16/M17 A2980 RMK AO2 SLP152 PCPN VRY LGT T11561167
PAOR 180053Z 00000KT 1/2SM -SN FZFG VV006 M16/M17 A2980 RMK AO2 SLP153 PCPN VRY LGT T11561172
PAOR 172353Z 00000KT 1/2SM -SN FZFG VV007 M16/M17 A2981 RMK AO2 SLP156 PCPN VRY LGT 4/008 I6000 T11611172 11161 21178 58006
PAOR 172253Z 00000KT 1/2SM -SN FZFG OVC008 M16/M17 A2982 RMK AO2 SNB33 SLP159 PCPN VRY LGT I1000 T11611172
PAOR 172234Z 00000KT 1/2SM -SN FZFG OVC008 M16/M17 A2982 RMK AO2 SNB33 PCPN VRY LGT I1000 T11611172
PAOR 172153Z 00000KT 1 1/2SM BR BKN008 OVC015 M16/M17 A2982 RMK AO2 SLP161 T11611172
PAOR 172053Z 00000KT 2SM BR BKN007 OVC012 M17/M18 A2983 RMK AO2 SLP162 T11671178 58005
PAOR 171953Z 00000KT 2SM BR BKN007 OVC010 M17/M18 A2984 RMK AO2 SLP167 T11721183
PAOR 171941Z 00000KT 2SM BR BKN007 OVC010 M17/M18 A2984 RMK AO2 T11721183
PAOR 171853Z 00000KT 1SM BR BKN007 OVC010 M17/M18 A2984 RMK AO2 SNE50 SLP168 T11721183
PAOR 171753Z 00000KT 1SM -SN BR BKN007 BKN010 OVC018 M18/M19 A2984 RMK AO2 SLP169 PCPN VRY LGT 4/008 T11781189 11172 21178 55001
PAOR 171653Z 00000KT 1SM -SN BR BKN007 OVC015 M18/M19 A2984 RMK AO2 SNB50 SLP169 PCPN VRY LGT T11781189
PAOR 171553Z 00000KT 1SM BR VV009 M18/M19 A2984 RMK AO2 SLP168 T11781189
PAOR 171453Z 00000KT 1 1/4SM BR OVC007 M18/M19 A2984 RMK AO2 SLP170 T11781189 56008
PAOR 171353Z 00000KT 1SM BR VV008 M17/M19 A2985 RMK AO2 SLP172 T11721189
PAOR 171253Z 00000KT 1SM BR VV007 M17/M18 A2986 RMK AO2 SLP175 T11721183
PAOR 171153Z 00000KT 1SM BR VV007 M17/M19 A2987 RMK AO2 SLP178 4/008 I6000 T11721189 11172 21172 58004
PAOR 171053Z 00000KT 1SM BR VV007 M17/M19 A2987 RMK AO2 SLP179 T11721189
PAOR 170953Z 00000KT 3/4SM BR VV005 M17/M19 A2988 RMK AO2 SLP182 T11721189
PAOR 170853Z 00000KT 3/4SM BR VV005 M17/M19 A2988 RMK AO2 SLP183 I1000 I3000 T11721189 411721233 58007
PAOR 170753Z 00000KT 3/4SM BR VV006 M17/M19 A2989 RMK AO2 SLP188 I1000 T11721189
PAOR 170653Z 00000KT 3/4SM BR VV007 M17/M19 A2989 RMK AO2 SLP191 I1000 T11721189
PAOR 170553Z 00000KT 3/4SM BR VV006 M17/M18 A2990 RMK AO2 SNE08 SLP193 4/008 T11721183 11172 21183 56005
PAOR 170545Z 00000KT 3/4SM BR VV006 M17/M18 A2990 RMK AO2 SNE08 T11721183
PAOR 170509Z 00000KT 1 1/4SM BR VV007 M18/M19 A2990 RMK AO2 SNE08 T11781189
PAOR 170453Z 00000KT 1 3/4SM -SN BR VV010 M18/M19 A2990 RMK AO2 SLP194 PCPN VRY LGT T11781189
PAOR 170416Z 00000KT 1 3/4SM -SN BR VV010 M18/M19 A2990 RMK AO2 T11781189
PAOR 170353Z 00000KT 1SM -SN BR VV009 M18/M19 A2990 RMK AO2 SLP196 PCPN VRY LGT T11781189
PAOR 170253Z 00000KT 1SM -SN BR VV008 M18/M19 A2992 RMK AO2 SLP199 PCPN VRY LGT T11781189 58006
PAOR 170215Z 00000KT 1SM -SN BR VV008 M18/M19 A2992 RMK AO2 T11781194
PAOR 170153Z 00000KT 3/4SM -SN BR VV007 M18/M19 A2992 RMK AO2 SLP202 PCPN VRY LGT T11781189
PAOR 170053Z 00000KT 3/4SM -SN BR VV007 M18/M19 A2993 RMK AO2 SLP205 PCPN VRY LGT T11781194
PAOR 170010Z 00000KT 3/4SM -SN BR VV007 M18/M19 A2994 RMK AO2 PCPN VRY LGT T11781194
PAOR 162353Z 00000KT 1 1/4SM -SN BR OVC010 M18/M19 A2994 RMK AO2 SLP209 PCPN VRY LGT 4/008 I6000 T11831194 11183 21211 58002
PAOR 162303Z 00000KT 1 3/4SM -SN BR OVC011 M18/M20 A2994 RMK AO2 T11831200
PAOR 162255Z 00000KT 2SM -SN BR OVC010 M18/M20 A2994 RMK AO2 T11831200
PAOR 162253Z 00000KT 1 1/2SM -SN BR FEW005 OVC010 M18/M20 A2994 RMK AO2 SLP209 T11831200
PAOR 162153Z 00000KT 1 1/2SM -SN BR FEW005 OVC010 M19/M21 A2994 RMK AO2 SLP213 T11891206
PAOR 162127Z 00000KT 1 1/2SM -SN BR FEW005 OVC010 M19/M21 A2994 RMK AO2 T11941206
PAOR 162124Z 00000KT 2SM -SN BR FEW005 OVC010 M19/M21 A2994 RMK AO2 T11941206